createdAt,value
2017-03-23T17:22:55.344Z,1018.49
2017-03-23T17:24:04.541Z,1018.51
2017-03-23T17:25:13.444Z,1018.53
2017-03-23T17:26:22.324Z,1018.6
2017-03-23T17:27:31.176Z,1018.59
2017-03-23T17:28:40.044Z,1018.6
2017-03-23T17:29:48.909Z,1018.58
2017-03-23T17:30:57.787Z,1018.58
2017-03-23T17:32:06.657Z,1018.59
2017-03-23T17:33:15.542Z,1018.6
2017-03-23T17:34:24.413Z,1018.59
2017-03-23T17:35:33.600Z,1018.62
2017-03-23T17:36:42.451Z,1018.64
2017-03-23T17:37:51.313Z,1018.65
2017-03-23T17:39:00.201Z,1018.67
2017-03-23T17:40:09.069Z,1018.69
2017-03-23T17:41:17.921Z,1018.67
2017-03-23T17:42:26.800Z,1018.66
2017-03-23T17:43:35.744Z,1018.69
2017-03-23T17:44:44.611Z,1018.74
2017-03-23T17:45:53.471Z,1018.7
2017-03-23T17:47:02.331Z,1018.73
2017-03-23T17:48:11.193Z,1018.66
2017-03-23T17:49:20.057Z,1018.67
2017-03-23T17:50:28.921Z,1018.71
2017-03-23T17:51:37.775Z,1018.69
2017-03-23T17:52:46.642Z,1018.72
2017-03-23T17:53:55.508Z,1018.73
2017-03-23T17:55:04.386Z,1018.78
2017-03-23T17:56:13.569Z,1018.79
2017-03-23T17:57:22.422Z,1018.84
2017-03-23T17:58:31.283Z,1018.89
2017-03-23T17:59:40.164Z,1018.91
2017-03-23T18:00:49.018Z,1018.94
2017-03-23T18:01:57.891Z,1018.97
2017-03-23T18:03:06.747Z,1018.96
2017-03-23T18:04:15.610Z,1018.94
2017-03-23T18:05:24.470Z,1018.99
2017-03-23T18:06:33.655Z,1019
2017-03-23T18:07:42.520Z,1019.08
2017-03-23T18:08:51.380Z,1019.1
2017-03-23T18:10:00.238Z,1019.11
2017-03-23T18:11:09.099Z,1019.13
2017-03-23T18:12:17.956Z,1019.15
2017-03-23T18:13:26.814Z,1019.15
2017-03-23T18:14:35.699Z,1019.18
2017-03-23T18:15:44.559Z,1019.14
2017-03-23T18:16:53.415Z,1019.13
2017-03-23T18:18:02.290Z,1019.15
2017-03-23T18:19:11.155Z,1019.19
2017-03-23T18:20:20.036Z,1019.23
2017-03-23T18:21:28.940Z,1019.22
2017-03-23T18:22:37.797Z,1019.26
2017-03-23T18:23:46.663Z,1019.29
2017-03-23T18:24:55.539Z,1019.34
2017-03-23T18:26:04.727Z,1019.36
2017-03-23T18:27:13.591Z,1019.41
2017-03-23T18:28:22.786Z,1019.46
2017-03-23T18:29:31.652Z,1019.43
2017-03-23T18:30:40.505Z,1019.43
2017-03-23T18:31:49.369Z,1019.47
2017-03-23T18:32:58.229Z,1019.42
2017-03-23T18:34:07.406Z,1019.43
2017-03-23T18:35:16.271Z,1019.38
2017-03-23T18:36:25.129Z,1019.36
2017-03-23T18:37:33.988Z,1019.35
2017-03-23T18:38:42.850Z,1019.35
2017-03-23T18:39:51.718Z,1019.35
2017-03-23T18:41:00.583Z,1019.36
2017-03-23T18:42:09.440Z,1019.39
2017-03-23T18:43:18.309Z,1019.39
2017-03-23T18:44:27.176Z,1019.37
2017-03-23T18:45:36.044Z,1019.42
2017-03-23T18:46:44.900Z,1019.46
2017-03-23T18:47:53.769Z,1019.47
2017-03-23T18:49:02.640Z,1019.46
2017-03-23T18:50:11.500Z,1019.49
2017-03-23T18:51:20.354Z,1019.48
2017-03-23T18:52:29.211Z,1019.55
2017-03-23T18:53:38.081Z,1019.54
2017-03-23T18:54:46.944Z,1019.58
2017-03-23T18:55:55.808Z,1019.58
2017-03-23T18:57:04.703Z,1019.59
2017-03-23T18:58:13.556Z,1019.59
2017-03-23T18:59:22.430Z,1019.63
2017-03-23T19:00:31.293Z,1019.64
2017-03-23T19:01:40.468Z,1019.63
2017-03-23T19:02:49.329Z,1019.67
2017-03-23T19:03:58.205Z,1019.69
2017-03-23T19:05:07.066Z,1019.71
2017-03-23T19:06:15.922Z,1019.72
2017-03-23T19:07:25.103Z,1019.72
2017-03-23T19:08:33.961Z,1019.7
2017-03-23T19:09:43.151Z,1019.71
2017-03-23T19:10:52.003Z,1019.76
2017-03-23T19:12:00.862Z,1019.78
2017-03-23T19:13:09.727Z,1019.73
2017-03-23T19:14:18.595Z,1019.71
2017-03-23T19:15:27.476Z,1019.74
2017-03-23T19:16:36.339Z,1019.76
2017-03-23T19:17:45.198Z,1019.75
2017-03-23T19:18:54.064Z,1019.76
2017-03-23T19:20:02.929Z,1019.73
2017-03-23T19:21:11.788Z,1019.75
2017-03-23T19:22:20.659Z,1019.71
2017-03-23T19:23:29.522Z,1019.74
2017-03-23T19:24:38.398Z,1019.71
2017-03-23T19:25:47.259Z,1019.71
2017-03-23T19:26:56.161Z,1019.71
2017-03-23T19:28:05.033Z,1019.75
2017-03-23T19:29:13.904Z,1019.77
2017-03-23T19:30:22.784Z,1019.78
2017-03-23T19:31:31.653Z,1019.8
2017-03-23T19:32:40.519Z,1019.82
2017-03-23T19:33:49.708Z,1019.84
2017-03-23T19:34:58.569Z,1019.87
2017-03-23T19:36:07.439Z,1019.87
2017-03-23T19:37:16.297Z,1019.88
2017-03-23T19:38:25.158Z,1019.87
2017-03-23T19:39:34.027Z,1019.9
2017-03-23T19:40:42.903Z,1019.91
2017-03-23T19:41:51.759Z,1019.91
2017-03-23T19:43:00.625Z,1019.94
2017-03-23T19:44:09.486Z,1019.96
2017-03-23T19:45:18.359Z,1020
2017-03-23T19:46:27.221Z,1020.01
2017-03-23T19:47:36.401Z,1020.03
2017-03-23T19:48:45.278Z,1020.08
2017-03-23T19:49:54.952Z,1020.11
2017-03-23T19:51:03.829Z,1020.13
2017-03-23T19:52:12.709Z,1020.17
2017-03-23T19:53:21.571Z,1020.22
2017-03-23T19:54:30.457Z,1020.25
2017-03-23T19:55:39.471Z,1020.26
2017-03-23T19:56:48.333Z,1020.27
2017-03-23T19:57:57.204Z,1020.3
2017-03-23T19:59:06.152Z,1020.28
2017-03-23T20:00:15.033Z,1020.29
2017-03-23T20:01:24.514Z,1020.35
2017-03-23T20:02:34.417Z,1020.37
2017-03-23T20:03:43.653Z,1020.36
2017-03-23T20:04:53.721Z,1020.38
2017-03-23T20:06:05.928Z,1020.41
2017-03-23T20:07:16.646Z,1020.45
2017-03-23T20:08:25.562Z,1020.46
2017-03-23T20:09:34.483Z,1020.45
2017-03-23T20:10:43.377Z,1020.43
2017-03-23T20:11:52.240Z,1020.46
2017-03-23T20:13:01.103Z,1020.47
2017-03-23T20:14:09.977Z,1020.52
2017-03-23T20:15:19.027Z,1020.52
2017-03-23T20:16:28.376Z,1020.55
2017-03-23T20:17:37.934Z,1020.55
2017-03-23T20:18:47.032Z,1020.54
2017-03-23T20:19:56.079Z,1020.53
2017-03-23T20:21:05.039Z,1020.51
2017-03-23T20:22:14.644Z,1020.52
2017-03-23T20:23:23.629Z,1020.51
2017-03-23T20:24:32.525Z,1020.53
2017-03-23T20:25:41.390Z,1020.58
2017-03-23T20:26:50.298Z,1020.55
2017-03-23T20:28:00.037Z,1020.61
2017-03-23T20:29:09.042Z,1020.64
2017-03-23T20:30:18.002Z,1020.64
2017-03-23T20:31:27.461Z,1020.7
2017-03-23T20:32:36.335Z,1020.67
2017-03-23T20:33:45.210Z,1020.73
2017-03-23T20:34:54.235Z,1020.73
2017-03-23T20:36:03.507Z,1020.76
2017-03-23T20:37:12.384Z,1020.81
2017-03-23T20:38:21.254Z,1020.85
2017-03-23T20:39:30.169Z,1020.87
2017-03-23T20:40:39.720Z,1020.88
2017-03-23T20:41:48.748Z,1020.9
2017-03-23T20:42:58.742Z,1020.91
2017-03-23T20:44:07.844Z,1020.91
2017-03-23T20:45:17.242Z,1020.92
2017-03-23T20:46:26.103Z,1020.94
2017-03-23T20:47:35.285Z,1020.98
2017-03-23T20:48:44.215Z,1020.98
2017-03-23T20:49:53.083Z,1020.99
2017-03-23T20:51:02.798Z,1021.01
2017-03-23T20:52:11.659Z,1021.02
2017-03-23T20:53:20.523Z,1020.99
2017-03-23T20:54:29.395Z,1021.03
2017-03-23T20:55:38.259Z,1021.05
2017-03-23T20:56:47.479Z,1021.08
2017-03-23T20:57:56.344Z,1021.09
2017-03-23T20:59:05.219Z,1021.1
2017-03-23T21:00:14.087Z,1021.11
2017-03-23T21:01:22.948Z,1021.1
2017-03-23T21:02:31.812Z,1021.1
2017-03-23T21:03:40.680Z,1021.11
2017-03-23T21:04:49.867Z,1021.1
2017-03-23T21:05:58.825Z,1021.11
2017-03-23T21:07:07.787Z,1021.12
2017-03-23T21:08:16.651Z,1021.13
2017-03-23T21:09:25.514Z,1021.14
2017-03-23T21:10:34.381Z,1021.12
2017-03-23T21:11:43.250Z,1021.16
2017-03-23T21:12:52.111Z,1021.14
2017-03-23T21:14:00.979Z,1021.12
2017-03-23T21:15:09.845Z,1021.15
2017-03-23T21:16:18.715Z,1021.15
2017-03-23T21:17:27.575Z,1021.13
2017-03-23T21:18:37.306Z,1021.16
2017-03-23T21:19:46.534Z,1021.14
2017-03-23T21:20:55.400Z,1021.16
2017-03-23T21:22:04.269Z,1021.17
2017-03-23T21:23:13.451Z,1021.17
2017-03-23T21:24:22.327Z,1021.23
2017-03-23T21:25:32.520Z,1021.22
2017-03-23T21:26:42.598Z,1021.24
2017-03-23T21:27:51.461Z,1021.21
2017-03-23T21:29:00.700Z,1021.22
2017-03-23T21:30:09.897Z,1021.26
2017-03-23T21:31:18.787Z,1021.26
2017-03-23T21:32:27.653Z,1021.26
2017-03-23T21:33:36.516Z,1021.26
2017-03-23T21:34:45.385Z,1021.25
2017-03-23T21:35:54.255Z,1021.22
2017-03-23T21:37:03.650Z,1021.21
2017-03-23T21:38:12.860Z,1021.24
2017-03-23T21:39:23.039Z,1021.27
2017-03-23T21:40:32.427Z,1021.27
2017-03-23T21:41:41.293Z,1021.3
2017-03-23T21:42:50.426Z,1021.31
2017-03-23T21:43:59.302Z,1021.32
2017-03-23T21:45:08.174Z,1021.3
2017-03-23T21:46:17.083Z,1021.32
2017-03-23T21:47:25.971Z,1021.36
2017-03-23T21:48:35.149Z,1021.35
2017-03-23T21:49:44.295Z,1021.36
2017-03-23T21:50:53.159Z,1021.4
2017-03-23T21:52:02.041Z,1021.4
2017-03-23T21:53:10.911Z,1021.42
2017-03-23T21:54:20.527Z,1021.5
2017-03-23T21:55:31.264Z,1021.48
2017-03-23T21:56:40.522Z,1021.52
2017-03-23T21:57:50.998Z,1021.56
2017-03-23T21:59:00.550Z,1021.5
2017-03-23T22:00:09.837Z,1021.52
2017-03-23T22:01:18.836Z,1021.52
2017-03-23T22:02:27.853Z,1021.53
2017-03-23T22:03:36.869Z,1021.55
2017-03-23T22:04:45.964Z,1021.54
2017-03-23T22:05:55.081Z,1021.58
2017-03-23T22:07:04.087Z,1021.6
2017-03-23T22:08:13.194Z,1021.64
2017-03-23T22:09:22.309Z,1021.62
2017-03-23T22:10:31.266Z,1021.62
2017-03-23T22:11:40.131Z,1021.63
2017-03-23T22:12:49.031Z,1021.57
2017-03-23T22:13:57.914Z,1021.55
2017-03-23T22:15:06.790Z,1021.58
2017-03-23T22:16:15.659Z,1021.6
2017-03-23T22:17:24.528Z,1021.56
2017-03-23T22:18:33.714Z,1021.6
2017-03-23T22:19:42.575Z,1021.58
2017-03-23T22:20:51.447Z,1021.63
2017-03-23T22:22:00.303Z,1021.65
2017-03-23T22:23:09.172Z,1021.64
2017-03-23T22:24:18.356Z,1021.61
2017-03-23T22:25:27.223Z,1021.65
2017-03-23T22:26:36.089Z,1021.64
2017-03-23T22:27:44.946Z,1021.64
2017-03-23T22:28:53.821Z,1021.67
2017-03-23T22:30:02.689Z,1021.67
2017-03-23T22:31:11.561Z,1021.73
2017-03-23T22:32:20.419Z,1021.71
2017-03-23T22:33:29.277Z,1021.72
2017-03-23T22:34:38.160Z,1021.74
2017-03-23T22:35:47.025Z,1021.75
2017-03-23T22:36:55.887Z,1021.73
2017-03-23T22:38:04.741Z,1021.77
2017-03-23T22:39:13.607Z,1021.8
2017-03-23T22:40:22.478Z,1021.81
2017-03-23T22:41:31.345Z,1021.84
2017-03-23T22:42:40.206Z,1021.82
2017-03-23T22:43:49.078Z,1021.86
2017-03-23T22:44:57.954Z,1021.79
2017-03-23T22:46:06.812Z,1021.83
2017-03-23T22:47:15.678Z,1021.86
2017-03-23T22:48:24.533Z,1021.85
2017-03-23T22:49:33.407Z,1021.86
2017-03-23T22:50:42.266Z,1021.9
2017-03-23T22:51:51.460Z,1021.91
2017-03-23T22:53:00.318Z,1021.97
2017-03-23T22:54:09.537Z,1021.97
2017-03-23T22:55:18.411Z,1021.96
2017-03-23T22:56:27.273Z,1021.92
2017-03-23T22:57:36.165Z,1021.96
2017-03-23T22:58:45.039Z,1021.95
2017-03-23T22:59:54.248Z,1021.94
2017-03-23T23:01:03.110Z,1021.94
2017-03-23T23:02:11.990Z,1021.96
2017-03-23T23:03:20.863Z,1022
2017-03-23T23:04:30.041Z,1022.01
2017-03-23T23:05:38.899Z,1022.02
2017-03-23T23:06:47.757Z,1022.03
2017-03-23T23:07:57.252Z,1022.09
2017-03-23T23:09:06.117Z,1022.05
2017-03-23T23:10:14.985Z,1022.07
2017-03-23T23:11:23.851Z,1022.06
2017-03-23T23:12:32.710Z,1022.1
2017-03-23T23:13:41.582Z,1022.09
2017-03-23T23:14:50.442Z,1022.16
2017-03-23T23:15:59.347Z,1022.17
2017-03-23T23:17:08.201Z,1022.19
2017-03-23T23:18:17.062Z,1022.2
2017-03-23T23:19:25.934Z,1022.24
2017-03-23T23:20:34.793Z,1022.22
2017-03-23T23:21:43.661Z,1022.21
2017-03-23T23:22:52.530Z,1022.24
2017-03-23T23:24:01.402Z,1022.2
2017-03-23T23:25:10.588Z,1022.25
2017-03-23T23:26:19.772Z,1022.24
2017-03-23T23:27:28.625Z,1022.25
2017-03-23T23:28:37.488Z,1022.22
2017-03-23T23:29:46.354Z,1022.25
2017-03-23T23:30:55.208Z,1022.29
2017-03-23T23:32:04.071Z,1022.29
2017-03-23T23:33:12.930Z,1022.28
2017-03-23T23:34:21.795Z,1022.31
2017-03-23T23:35:30.662Z,1022.34
2017-03-23T23:36:39.521Z,1022.33
2017-03-23T23:37:48.383Z,1022.34
2017-03-23T23:38:57.249Z,1022.37
2017-03-23T23:40:06.116Z,1022.39
2017-03-23T23:41:14.974Z,1022.38
2017-03-23T23:42:23.841Z,1022.37
2017-03-23T23:43:32.708Z,1022.38
2017-03-23T23:44:41.583Z,1022.39
2017-03-23T23:45:50.431Z,1022.38
2017-03-23T23:46:59.293Z,1022.34
2017-03-23T23:48:08.155Z,1022.26
2017-03-23T23:49:17.016Z,1022.3
2017-03-23T23:50:25.884Z,1022.31
2017-03-23T23:51:34.747Z,1022.31
2017-03-23T23:52:43.600Z,1022.3
2017-03-23T23:53:52.469Z,1022.3
2017-03-23T23:55:01.656Z,1022.3
2017-03-23T23:56:10.510Z,1022.28
2017-03-23T23:57:19.374Z,1022.28
2017-03-23T23:58:28.223Z,1022.27
2017-03-23T23:59:37.089Z,1022.25
